Time;durP1;ratioP1;P1;durP2;ratioP2;P2;SDS_P1;SDS_P2;PMS_P1;PMS_P2;Temp;Humidity;BMP_temperature;BMP_pressure;BME280_temperature;BME280_humidity;BME280_pressure;Samples;Min_cycle;Max_cycle;Signal;HPM_P1;HPM_P2
2022/12/23 00:01:13;;;;;;;49.00;11.30;;;10.40;99.90;;;;;;4951970;28;37162;-75
2022/12/23 00:03:39;;;;;;;63.47;12.90;;;10.40;99.90;;;;;;4960623;28;36630;-75
2022/12/23 00:06:11;;;;;;;72.30;13.47;;;10.50;99.90;;;;;;4968494;28;39661;-76
2022/12/23 00:08:37;;;;;;;52.30;11.43;;;10.50;99.90;;;;;;4969868;28;39993;-75
2022/12/23 00:11:09;;;;;;;62.97;13.37;;;10.40;99.90;;;;;;4966008;28;38767;-75
2022/12/23 00:16:20;;;;;;;45.80;10.73;;;10.50;99.90;;;;;;4964070;28;39286;-76
2022/12/23 00:18:46;;;;;;;62.30;11.97;;;10.50;99.90;;;;;;4957543;28;38714;-75
2022/12/23 00:21:15;;;;;;;42.20;9.70;;;10.50;99.90;;;;;;4960023;28;37132;-75
2022/12/23 00:23:46;;;;;;;33.37;9.80;;;10.50;99.90;;;;;;4956746;28;37487;-75
2022/12/23 00:26:18;;;;;;;39.63;9.10;;;10.50;99.90;;;;;;4975316;28;38947;-76
2022/12/23 00:28:44;;;;;;;29.80;6.82;;;10.50;99.90;;;;;;4956666;28;39131;-75
2022/12/23 00:31:11;;;;;;;35.57;8.53;;;10.50;99.90;;;;;;4963694;28;38306;-76
2022/12/23 00:33:42;;;;;;;27.73;8.07;;;10.50;99.90;;;;;;4961736;28;36500;-75
2022/12/23 00:36:33;;;;;;;25.50;7.23;;;10.50;99.90;;;;;;4963944;28;37545;-76
2022/12/23 00:44:28;;;;;;;27.23;9.13;;;10.60;99.90;;;;;;4967653;28;49551;-76
2022/12/23 00:46:54;;;;;;;24.23;8.47;;;10.60;99.90;;;;;;4968646;28;37953;-75
2022/12/23 00:52:09;;;;;;;29.83;11.13;;;10.50;99.90;;;;;;4967747;28;39727;-75
2022/12/23 00:54:35;;;;;;;28.97;9.97;;;10.60;99.90;;;;;;4969585;28;38337;-75
2022/12/23 00:57:02;;;;;;;21.17;9.90;;;10.60;99.90;;;;;;4984300;28;37628;-75
2022/12/23 00:59:28;;;;;;;30.07;9.57;;;10.50;99.90;;;;;;4970235;28;47616;-75
2022/12/23 01:07:24;;;;;;;19.10;7.50;;;10.50;99.90;;;;;;4972616;28;39306;-75
2022/12/23 01:09:50;;;;;;;15.30;7.70;;;10.50;99.90;;;;;;4970945;28;37310;-75
2022/12/23 01:12:16;;;;;;;16.90;8.60;;;10.50;99.90;;;;;;4974749;28;38519;-76
2022/12/23 01:14:42;;;;;;;19.40;8.60;;;10.50;99.90;;;;;;4974822;28;36535;-76
2022/12/23 01:17:08;;;;;;;11.13;7.70;;;10.50;99.90;;;;;;4970512;28;40880;-75
2022/12/23 01:19:35;;;;;;;20.63;9.13;;;10.50;99.90;;;;;;4972889;28;37186;-76
2022/12/23 01:22:01;;;;;;;15.43;9.47;;;10.50;99.90;;;;;;4970114;28;37738;-75
2022/12/23 01:24:29;;;;;;;23.67;10.67;;;10.50;99.90;;;;;;4973959;28;36195;-75
2022/12/23 01:26:55;;;;;;;22.87;10.33;;;10.50;99.90;;;;;;4965586;28;37665;-76
2022/12/23 01:29:21;;;;;;;26.43;12.00;;;10.50;99.90;;;;;;4967518;28;39604;-75
2022/12/23 01:31:47;;;;;;;37.67;13.57;;;10.50;99.90;;;;;;4967660;28;37098;-76
2022/12/23 01:34:13;;;;;;;42.23;14.93;;;10.50;99.90;;;;;;4963858;28;38534;-76
2022/12/23 01:36:39;;;;;;;33.33;14.30;;;10.50;99.90;;;;;;4964213;28;37658;-75
2022/12/23 01:39:05;;;;;;;33.97;14.43;;;10.50;99.90;;;;;;4959994;28;39114;-75
2022/12/23 01:44:49;;;;;;;36.00;14.10;;;10.50;99.90;;;;;;4971724;28;37764;-75
2022/12/23 01:47:27;;;;;;;33.60;14.67;;;10.50;99.90;;;;;;4968777;28;40349;-75
2022/12/23 01:50:08;;;;;;;33.17;14.37;;;10.50;99.90;;;;;;4970686;28;38616;-75
2022/12/23 01:52:44;;;;;;;36.67;15.60;;;10.60;99.90;;;;;;4964934;28;47233;-75
2022/12/23 01:55:11;;;;;;;37.40;15.23;;;10.60;99.90;;;;;;4966131;28;36228;-75
2022/12/23 01:57:41;;;;;;;25.33;13.50;;;10.50;99.90;;;;;;4978145;28;37486;-75
2022/12/23 02:05:31;;;;;;;46.13;18.33;;;10.60;99.90;;;;;;4983460;28;49358;-80
2022/12/23 02:11:06;;;;;;;34.70;16.40;;;10.60;99.90;;;;;;4990316;28;49048;-80
2022/12/23 02:13:36;;;;;;;36.30;17.53;;;10.60;99.90;;;;;;4971481;28;47221;-80
2022/12/23 02:16:16;;;;;;;33.30;16.60;;;10.50;99.90;;;;;;4972034;28;36576;-80
2022/12/23 02:18:55;;;;;;;48.53;19.90;;;10.50;99.90;;;;;;4971493;28;50159;-79
2022/12/23 02:21:39;;;;;;;31.03;15.67;;;10.50;99.90;;;;;;4969943;28;37618;-79
2022/12/23 02:24:27;;;;;;;44.17;19.23;;;10.50;99.90;;;;;;4983066;28;37682;-79
2022/12/23 02:27:15;;;;;;;49.53;20.53;;;10.50;99.90;;;;;;4976417;28;36993;-81
2022/12/23 02:30:06;;;;;;;35.83;18.30;;;10.50;99.90;;;;;;4966075;28;46982;-80
2022/12/23 02:32:56;;;;;;;46.27;19.23;;;10.50;99.90;;;;;;4991597;28;37970;-80
2022/12/23 02:35:32;;;;;;;39.67;18.03;;;10.50;99.90;;;;;;4994140;28;37776;-80
2022/12/23 02:38:01;;;;;;;41.40;19.57;;;10.50;99.90;;;;;;4990815;28;36923;-80
2022/12/23 02:41:05;;;;;;;43.43;20.00;;;10.50;99.90;;;;;;4973790;28;37266;-80
2022/12/23 02:43:58;;;;;;;50.23;21.07;;;10.50;99.90;;;;;;4948186;28;50047;-80
2022/12/23 02:46:29;;;;;;;44.17;19.60;;;10.50;99.90;;;;;;4966542;28;38020;-79
2022/12/23 02:49:13;;;;;;;37.53;18.80;;;10.50;99.90;;;;;;4973266;28;36153;-79
2022/12/23 02:51:44;;;;;;;33.30;18.53;;;10.50;99.90;;;;;;4979344;28;46947;-80
2022/12/23 02:54:16;;;;;;;33.33;16.07;;;10.40;99.90;;;;;;4986222;28;39451;-80
2022/12/23 02:56:46;;;;;;;44.30;19.20;;;10.40;99.90;;;;;;4971829;28;37208;-80
2022/12/23 02:59:16;;;;;;;27.50;16.57;;;10.50;99.90;;;;;;4988474;28;37317;-79
2022/12/23 03:01:43;;;;;;;38.70;17.63;;;10.40;99.90;;;;;;4988644;28;39476;-81
2022/12/23 03:04:09;;;;;;;34.30;17.60;;;10.40;99.90;;;;;;4986048;28;38283;-80
2022/12/23 03:06:43;;;;;;;37.67;17.10;;;10.40;99.90;;;;;;4971649;28;36509;-80
2022/12/23 03:09:16;;;;;;;28.27;16.63;;;10.40;99.90;;;;;;4983195;28;37210;-79
2022/12/23 03:12:14;;;;;;;26.77;16.17;;;10.40;99.90;;;;;;4985142;28;38821;-79
2022/12/23 03:14:40;;;;;;;31.80;17.43;;;10.40;99.90;;;;;;4982286;28;46746;-80
2022/12/23 03:17:35;;;;;;;38.60;18.73;;;10.40;99.90;;;;;;4990623;28;37001;-80
2022/12/23 03:20:19;;;;;;;37.97;16.90;;;10.40;99.90;;;;;;4961822;28;37375;-81
2022/12/23 03:23:34;;;;;;;40.63;17.70;;;10.40;99.90;;;;;;4974505;28;47073;-82
2022/12/23 03:26:15;;;;;;;30.90;16.30;;;10.40;99.90;;;;;;4964223;28;46231;-79
2022/12/23 03:28:59;;;;;;;37.73;17.97;;;10.40;99.90;;;;;;4994974;28;48691;-79
2022/12/23 03:31:29;;;;;;;37.10;19.03;;;10.40;99.90;;;;;;4995742;28;36406;-79
2022/12/23 03:34:04;;;;;;;37.77;18.43;;;10.40;99.90;;;;;;4972358;28;38658;-79
2022/12/23 03:36:40;;;;;;;34.03;18.47;;;10.40;99.90;;;;;;4994512;28;49017;-80
2022/12/23 03:39:12;;;;;;;40.07;19.23;;;10.40;99.90;;;;;;4979929;28;37238;-79
2022/12/23 03:41:42;;;;;;;39.43;18.83;;;10.30;99.90;;;;;;4992315;28;37493;-80
2022/12/23 03:44:18;;;;;;;42.53;19.67;;;10.30;99.90;;;;;;4993176;28;39022;-80
2022/12/23 03:47:08;;;;;;;35.10;19.03;;;10.30;99.90;;;;;;4996666;28;38526;-80
2022/12/23 03:49:42;;;;;;;56.67;22.30;;;10.30;99.90;;;;;;4995341;28;48935;-80
2022/12/23 03:52:15;;;;;;;52.23;20.60;;;10.30;99.90;;;;;;4994202;28;38392;-79
2022/12/23 03:54:50;;;;;;;;;;;10.30;99.90;;;;;;4972143;28;37459;-80
2022/12/23 03:57:20;;;;;;;45.33;19.10;;;10.30;99.90;;;;;;4983287;28;37250;-79
2022/12/23 03:59:52;;;;;;;43.00;19.80;;;10.30;99.90;;;;;;4997259;28;39209;-79
2022/12/23 04:02:30;;;;;;;42.97;19.80;;;10.30;99.90;;;;;;4977684;28;36626;-79
2022/12/23 04:05:18;;;;;;;42.57;18.53;;;10.30;99.90;;;;;;4992278;28;38622;-79
2022/12/23 04:07:52;;;;;;;67.67;21.73;;;10.40;99.90;;;;;;4987466;28;49299;-78
2022/12/23 04:10:20;;;;;;;48.87;20.27;;;10.30;99.90;;;;;;4986675;28;39371;-79
2022/12/23 04:12:49;;;;;;;56.43;19.67;;;10.40;99.90;;;;;;4989455;28;37455;-79
2022/12/23 04:15:25;;;;;;;54.57;19.63;;;10.30;99.90;;;;;;4973694;28;37325;-79
2022/12/23 04:17:53;;;;;;;47.80;19.17;;;10.30;99.90;;;;;;4966779;28;37197;-79
2022/12/23 04:20:19;;;;;;;48.27;17.67;;;10.30;99.90;;;;;;4970736;28;38105;-79
2022/12/23 04:22:45;;;;;;;41.13;17.80;;;10.30;99.90;;;;;;4974118;28;37745;-80
2022/12/23 04:25:21;;;;;;;45.57;18.40;;;10.30;99.90;;;;;;4993732;28;38688;-79
2022/12/23 04:27:47;;;;;;;42.93;17.90;;;10.30;99.90;;;;;;4992203;28;39227;-81
2022/12/23 04:30:13;;;;;;;61.93;20.53;;;10.30;99.90;;;;;;4977346;28;38797;-79
2022/12/23 04:32:41;;;;;;;52.67;18.17;;;10.40;99.90;;;;;;4988056;28;37550;-80
2022/12/23 04:35:08;;;;;;;44.20;18.20;;;10.30;99.90;;;;;;4975652;28;37728;-80
2022/12/23 04:37:35;;;;;;;44.50;18.07;;;10.40;99.90;;;;;;4990958;28;38401;-81
2022/12/23 04:40:01;;;;;;;45.63;17.97;;;10.40;99.90;;;;;;4986705;28;39204;-81
2022/12/23 04:42:28;;;;;;;52.30;17.57;;;10.30;99.90;;;;;;4987483;28;37353;-80
2022/12/23 04:44:54;;;;;;;53.03;18.23;;;10.40;99.90;;;;;;4970148;28;37747;-80
2022/12/23 04:47:20;;;;;;;42.30;17.47;;;10.30;99.90;;;;;;4969298;28;37382;-80
2022/12/23 04:49:46;;;;;;;52.37;18.63;;;10.30;99.90;;;;;;4985122;28;38740;-80
2022/12/23 04:52:12;;;;;;;46.00;18.03;;;10.30;99.90;;;;;;4972564;28;36324;-79
2022/12/23 04:54:38;;;;;;;43.97;18.63;;;10.30;99.90;;;;;;4989066;28;38912;-80
2022/12/23 04:57:04;;;;;;;48.40;19.77;;;10.30;99.90;;;;;;4987140;28;38114;-80
2022/12/23 04:59:30;;;;;;;36.47;17.23;;;10.30;99.90;;;;;;4986726;28;37850;-80
2022/12/23 05:01:57;;;;;;;43.67;18.20;;;10.20;99.90;;;;;;4991495;28;37467;-79
2022/12/23 05:04:23;;;;;;;41.23;18.83;;;10.20;99.90;;;;;;4993781;28;38857;-81
2022/12/23 05:06:49;;;;;;;45.40;19.37;;;10.20;99.90;;;;;;4985448;28;39964;-81
2022/12/23 05:09:15;;;;;;;44.37;21.23;;;10.20;99.90;;;;;;4986082;28;36711;-80
2022/12/23 05:11:41;;;;;;;44.27;19.57;;;10.20;99.90;;;;;;4986501;28;38086;-80
2022/12/23 05:14:09;;;;;;;40.53;19.03;;;10.20;99.90;;;;;;4991192;28;38277;-80
2022/12/23 05:16:35;;;;;;;47.63;20.47;;;10.20;99.90;;;;;;4970892;28;38840;-80
2022/12/23 05:19:01;;;;;;;43.83;20.00;;;10.20;99.90;;;;;;4971691;28;37898;-80
2022/12/23 05:21:27;;;;;;;61.07;23.53;;;10.20;99.90;;;;;;4986535;28;36208;-80
2022/12/23 05:23:54;;;;;;;47.27;20.87;;;10.20;99.90;;;;;;4969645;28;37359;-80
2022/12/23 05:26:20;;;;;;;47.37;20.20;;;10.20;99.90;;;;;;4971726;28;36959;-80
2022/12/23 05:28:46;;;;;;;47.07;21.00;;;10.20;99.90;;;;;;4986226;28;37665;-80
2022/12/23 05:31:13;;;;;;;42.83;20.63;;;10.30;99.90;;;;;;4987707;28;36361;-80
2022/12/23 05:33:39;;;;;;;42.23;20.80;;;10.20;99.90;;;;;;4971389;28;38536;-80
2022/12/23 05:36:06;;;;;;;42.70;21.10;;;10.20;99.90;;;;;;4987040;28;38289;-81
2022/12/23 05:38:32;;;;;;;48.83;22.47;;;10.10;99.90;;;;;;4970863;28;37064;-81
2022/12/23 05:40:58;;;;;;;51.67;21.07;;;10.10;99.90;;;;;;4985929;28;37487;-79
2022/12/23 05:43:24;;;;;;;53.23;21.73;;;10.10;99.90;;;;;;4986193;28;39497;-80
2022/12/23 05:45:51;;;;;;;63.30;21.70;;;10.10;99.90;;;;;;4973229;28;37259;-80
2022/12/23 05:48:17;;;;;;;44.27;17.73;;;10.10;99.90;;;;;;4973539;28;37596;-80
2022/12/23 05:50:43;;;;;;;61.20;19.87;;;10.00;99.90;;;;;;4984778;28;37162;-80
2022/12/23 05:53:09;;;;;;;47.93;19.43;;;10.00;99.90;;;;;;4964953;28;37714;-80
2022/12/23 05:55:35;;;;;;;44.53;16.97;;;10.00;99.90;;;;;;4969990;28;37478;-80
2022/12/23 05:58:02;;;;;;;40.37;17.43;;;10.00;99.90;;;;;;4988663;28;37740;-79
2022/12/23 06:00:28;;;;;;;63.47;20.30;;;10.00;99.90;;;;;;4987145;28;48034;-79
2022/12/23 06:02:54;;;;;;;42.77;17.47;;;10.00;99.90;;;;;;4971372;28;36271;-80
2022/12/23 06:05:20;;;;;;;41.60;16.87;;;10.00;99.90;;;;;;4974387;28;37900;-80
2022/12/23 06:07:47;;;;;;;40.87;17.03;;;10.00;99.90;;;;;;4972057;28;38026;-80
2022/12/23 06:10:13;;;;;;;37.77;15.80;;;9.90;99.90;;;;;;4991237;28;36928;-81
2022/12/23 06:12:39;;;;;;;34.27;15.77;;;9.90;99.90;;;;;;4976133;28;38755;-79
2022/12/23 06:15:06;;;;;;;38.53;15.70;;;9.90;99.90;;;;;;4994455;28;38947;-81
2022/12/23 06:17:32;;;;;;;39.13;16.87;;;9.90;99.90;;;;;;4989427;28;47231;-81
2022/12/23 06:19:58;;;;;;;38.67;16.60;;;9.90;99.90;;;;;;4975954;28;36191;-79
2022/12/23 06:22:25;;;;;;;37.33;16.73;;;9.90;99.90;;;;;;4983187;28;39341;-77
2022/12/23 06:24:51;;;;;;;36.37;17.03;;;9.90;99.90;;;;;;4978677;28;38629;-80
2022/12/23 06:27:18;;;;;;;40.03;17.03;;;9.90;99.90;;;;;;4984049;28;37654;-79
2022/12/23 06:29:44;;;;;;;36.17;17.90;;;9.90;99.90;;;;;;4976502;28;35952;-80
2022/12/23 06:32:10;;;;;;;46.03;18.73;;;9.90;99.90;;;;;;4986252;28;39204;-80
2022/12/23 06:34:36;;;;;;;39.90;18.07;;;9.90;99.90;;;;;;4989289;28;38687;-80
2022/12/23 06:37:05;;;;;;;47.07;18.70;;;9.90;99.90;;;;;;4987322;28;38889;-79
2022/12/23 06:39:31;;;;;;;41.70;17.97;;;9.90;99.90;;;;;;4960834;28;47466;-79
2022/12/23 06:41:57;;;;;;;44.40;17.93;;;9.80;99.90;;;;;;4982308;28;39602;-80
2022/12/23 06:46:59;;;;;;;38.33;18.30;;;9.90;99.90;;;;;;5749102;23;20051;-80
2022/12/23 06:49:26;;;;;;;34.50;16.40;;;9.90;99.90;;;;;;5011722;28;38645;-80
2022/12/23 06:51:59;;;;;;;58.07;20.17;;;9.90;99.90;;;;;;5010787;28;39014;-81
2022/12/23 06:54:25;;;;;;;28.30;16.90;;;9.90;99.90;;;;;;5019305;28;39040;-81
2022/12/23 06:57:02;;;;;;;39.33;16.37;;;9.90;99.90;;;;;;5015779;28;39357;-81
2022/12/23 06:59:32;;;;;;;21.80;13.90;;;9.90;99.90;;;;;;5011676;28;49029;-81
2022/12/23 07:01:58;;;;;;;25.80;14.43;;;9.90;99.90;;;;;;4998457;28;37262;-81
2022/12/23 07:04:51;;;;;;;23.20;12.73;;;9.90;99.90;;;;;;4982503;28;37376;-80
2022/12/23 07:07:25;;;;;;;;;;;9.90;99.90;;;;;;5013938;28;39549;-82
2022/12/23 07:09:55;;;;;;;22.67;11.52;;;9.90;99.90;;;;;;5000884;28;37040;-81
2022/12/23 07:12:24;;;;;;;24.70;11.90;;;9.80;99.90;;;;;;5009534;28;39611;-81
2022/12/23 07:15:06;;;;;;;26.27;11.93;;;9.90;99.90;;;;;;5060677;23;38695;-79
2022/12/23 07:22:55;;;;;;;19.27;10.87;;;9.90;99.90;;;;;;5219757;23;20039;-82
2022/12/23 07:25:24;;;;;;;19.53;11.13;;;9.90;99.90;;;;;;4980298;28;38801;-80
2022/12/23 07:27:54;;;;;;;28.00;13.10;;;9.90;99.90;;;;;;4972820;28;38650;-80
2022/12/23 07:30:22;;;;;;;15.63;10.63;;;10.00;99.90;;;;;;4979666;28;34569;-80
2022/12/23 07:32:48;;;;;;;23.70;12.80;;;9.90;99.90;;;;;;4977533;28;37637;-79
2022/12/23 07:35:16;;;;;;;20.40;11.67;;;9.90;99.90;;;;;;4998106;28;38491;-80
2022/12/23 07:37:42;;;;;;;16.70;11.00;;;9.90;99.90;;;;;;4980735;28;37284;-79
2022/12/23 07:40:10;;;;;;;20.97;10.60;;;9.90;99.90;;;;;;4969131;28;39183;-78
2022/12/23 07:42:36;;;;;;;15.47;10.00;;;10.00;99.90;;;;;;4983009;28;39191;-77
2022/12/23 07:45:03;;;;;;;13.97;10.27;;;10.00;99.90;;;;;;4988346;28;38297;-78
2022/12/23 07:47:30;;;;;;;15.40;10.10;;;10.00;99.90;;;;;;4965039;28;37226;-77
2022/12/23 07:49:56;;;;;;;13.20;10.23;;;10.00;99.90;;;;;;4966193;28;36313;-79
2022/12/23 07:52:22;;;;;;;17.83;10.50;;;10.00;99.90;;;;;;4971531;28;39042;-78
2022/12/23 07:54:48;;;;;;;20.30;12.23;;;9.90;99.90;;;;;;4969478;28;36673;-79
2022/12/23 07:57:14;;;;;;;21.43;12.23;;;10.00;99.90;;;;;;4966243;28;38249;-77
2022/12/23 07:59:40;;;;;;;23.70;12.50;;;9.90;99.90;;;;;;4983703;28;37171;-77
2022/12/23 08:02:09;;;;;;;33.00;14.37;;;10.00;99.90;;;;;;4983992;28;39227;-78
2022/12/23 08:04:35;;;;;;;21.73;13.10;;;10.00;99.90;;;;;;4979522;28;38590;-77
2022/12/23 08:07:01;;;;;;;19.40;12.67;;;9.90;99.90;;;;;;4964624;28;36885;-79
2022/12/23 08:09:27;;;;;;;25.07;15.07;;;10.00;99.90;;;;;;4967595;28;38387;-76
2022/12/23 08:11:53;;;;;;;22.40;13.70;;;10.00;99.90;;;;;;4964610;28;37894;-77
2022/12/23 08:14:19;;;;;;;28.33;14.07;;;10.00;99.90;;;;;;4960117;28;36906;-77
2022/12/23 08:16:47;;;;;;;24.87;14.67;;;10.00;99.90;;;;;;4968469;28;37810;-77
2022/12/23 08:19:13;;;;;;;43.23;17.20;;;10.00;99.90;;;;;;4974387;28;36495;-77
2022/12/23 08:21:45;;;;;;;42.10;17.50;;;10.00;99.90;;;;;;4970484;28;40473;-80
2022/12/23 08:24:15;;;;;;;46.50;16.83;;;10.00;99.90;;;;;;5007839;23;39464;-80
2022/12/23 08:26:41;;;;;;;43.10;17.70;;;10.00;99.90;;;;;;4985056;28;38146;-80
2022/12/23 08:29:12;;;;;;;42.87;17.77;;;10.00;99.90;;;;;;4997059;28;37499;-79
2022/12/23 08:31:38;;;;;;;41.00;16.77;;;10.00;99.90;;;;;;4992706;28;39325;-80
2022/12/23 08:34:04;;;;;;;54.87;20.10;;;9.90;99.90;;;;;;4995900;28;38509;-80
2022/12/23 08:36:33;;;;;;;42.90;18.07;;;9.90;99.90;;;;;;5007498;28;36856;-82
2022/12/23 08:39:04;;;;;;;45.60;18.97;;;9.90;99.90;;;;;;4998084;28;38056;-79
2022/12/23 08:41:34;;;;;;;42.77;17.53;;;9.80;99.90;;;;;;4990749;28;48922;-80
2022/12/23 08:44:00;;;;;;;56.43;19.57;;;9.80;99.90;;;;;;4976029;28;37172;-81
2022/12/23 08:46:27;;;;;;;65.30;21.10;;;9.90;99.90;;;;;;5377401;23;36654;-79
2022/12/23 08:48:53;;;;;;;61.40;21.60;;;9.80;99.90;;;;;;4953901;28;38013;-80
2022/12/23 08:51:27;;;;;;;57.50;21.23;;;9.80;99.90;;;;;;4964381;28;39200;-82
2022/12/23 08:53:56;;;;;;;57.37;21.07;;;9.80;99.90;;;;;;5394096;23;40029;-81
2022/12/23 08:56:25;;;;;;;74.00;22.30;;;9.80;99.90;;;;;;4977906;28;37621;-80
2022/12/23 08:58:53;;;;;;;56.00;20.77;;;9.90;99.90;;;;;;4976769;28;36996;-80
2022/12/23 09:01:22;;;;;;;53.70;22.20;;;9.90;99.90;;;;;;4974211;28;38569;-81
2022/12/23 09:03:49;;;;;;;78.57;24.80;;;9.80;99.90;;;;;;4980121;28;37381;-80
2022/12/23 09:06:23;;;;;;;59.37;23.20;;;9.90;99.90;;;;;;4981997;28;37910;-80
2022/12/23 09:08:53;;;;;;;61.40;23.03;;;9.90;99.90;;;;;;5004465;28;36140;-81
2022/12/23 09:11:24;;;;;;;47.83;21.57;;;9.80;99.90;;;;;;5002352;28;40372;-80
2022/12/23 09:13:53;;;;;;;55.47;23.80;;;9.90;99.90;;;;;;4996240;28;38408;-80
2022/12/23 09:16:19;;;;;;;63.97;25.97;;;9.90;99.90;;;;;;4983069;28;38512;-80
2022/12/23 09:18:45;;;;;;;65.80;24.97;;;10.00;99.90;;;;;;4992820;28;38368;-80
2022/12/23 09:21:20;;;;;;;72.30;25.53;;;9.90;99.90;;;;;;4997285;28;38383;-80
2022/12/23 09:23:46;;;;;;;63.13;27.17;;;9.90;99.90;;;;;;4998051;28;39134;-80
2022/12/23 09:26:21;;;;;;;61.83;27.27;;;9.90;99.90;;;;;;5003568;28;38356;-81
2022/12/23 09:28:47;;;;;;;70.60;29.23;;;9.90;99.90;;;;;;5001039;28;38908;-81
2022/12/23 09:31:14;;;;;;;88.33;30.70;;;9.90;99.90;;;;;;5002001;28;39405;-80
2022/12/23 09:33:41;;;;;;;51.20;27.37;;;9.90;99.90;;;;;;4981648;28;37625;-80
2022/12/23 09:36:07;;;;;;;65.17;29.40;;;9.90;99.90;;;;;;5004853;28;38564;-81
2022/12/23 09:38:34;;;;;;;55.47;27.07;;;9.90;99.90;;;;;;4991248;28;36554;-82
2022/12/23 09:41:08;;;;;;;56.17;27.23;;;9.90;99.90;;;;;;4990838;28;37889;-81
2022/12/23 09:43:46;;;;;;;56.27;27.60;;;9.90;99.90;;;;;;4978235;28;47145;-81
2022/12/23 09:46:25;;;;;;;62.23;27.43;;;9.90;99.90;;;;;;5004246;28;38663;-80
2022/12/23 09:48:59;;;;;;;49.47;25.63;;;9.90;99.90;;;;;;4980321;28;36252;-81
2022/12/23 09:51:28;;;;;;;54.60;26.03;;;10.00;99.90;;;;;;4969003;28;37125;-81
2022/12/23 09:53:54;;;;;;;49.77;26.40;;;9.90;99.90;;;;;;4974662;28;40752;-80
2022/12/23 09:56:46;;;;;;;50.60;26.50;;;9.90;99.90;;;;;;4986368;28;39285;-81
2022/12/23 09:59:43;;;;;;;42.87;25.57;;;10.00;99.90;;;;;;4983917;28;37496;-80
2022/12/23 10:02:34;;;;;;;42.73;23.13;;;10.00;99.90;;;;;;4995181;28;38864;-79
2022/12/23 10:05:27;;;;;;;41.30;22.93;;;10.00;99.90;;;;;;4998137;28;38267;-81
2022/12/23 10:07:56;;;;;;;40.83;23.77;;;9.90;99.90;;;;;;4982546;28;46098;-80
2022/12/23 10:10:31;;;;;;;40.27;22.70;;;10.00;99.90;;;;;;4991519;28;37310;-80
2022/12/23 10:13:00;;;;;;;57.30;24.80;;;9.90;99.90;;;;;;4987309;28;38923;-79
2022/12/23 10:15:37;;;;;;;45.43;22.13;;;10.00;99.90;;;;;;4985930;28;39112;-77
2022/12/23 10:18:20;;;;;;;35.97;19.70;;;10.00;99.90;;;;;;4979638;28;36759;-80
2022/12/23 10:21:01;;;;;;;49.45;21.00;;;10.00;99.90;;;;;;4980342;28;38027;-79
2022/12/23 10:23:33;;;;;;;37.97;19.67;;;9.90;99.90;;;;;;4979853;28;39283;-80
2022/12/23 10:26:02;;;;;;;37.47;20.60;;;10.00;99.90;;;;;;4975406;28;38778;-80
2022/12/23 10:28:28;;;;;;;33.90;19.60;;;10.00;99.90;;;;;;4985721;28;38476;-80
2022/12/23 10:31:04;;;;;;;36.10;20.70;;;10.00;99.90;;;;;;4988756;28;37034;-80
2022/12/23 10:34:09;;;;;;;39.43;22.03;;;10.00;99.90;;;;;;4985614;28;40039;-80
2022/12/23 10:36:50;;;;;;;33.40;20.30;;;10.10;99.90;;;;;;4986894;28;47844;-80
2022/12/23 10:39:56;;;;;;;35.07;20.93;;;10.00;99.90;;;;;;4988162;28;38031;-79
2022/12/23 10:42:33;;;;;;;43.27;21.07;;;10.00;99.90;;;;;;4916204;28;35934;-79
2022/12/23 10:45:11;;;;;;;36.57;22.63;;;10.10;99.90;;;;;;4969978;28;37913;-79
2022/12/23 10:48:06;;;;;;;41.47;22.37;;;10.00;99.90;;;;;;4988091;28;48813;-79
2022/12/23 10:50:45;;;;;;;42.80;23.03;;;10.00;99.90;;;;;;4965781;28;48236;-80
2022/12/23 10:53:27;;;;;;;40.43;22.10;;;10.00;99.90;;;;;;4970660;28;36618;-79
2022/12/23 10:55:55;;;;;;;42.90;23.50;;;10.00;99.90;;;;;;4971373;28;39145;-79
2022/12/23 10:58:21;;;;;;;43.30;24.10;;;10.00;99.90;;;;;;4969885;28;38967;-79
2022/12/23 11:00:54;;;;;;;38.73;22.40;;;10.00;99.90;;;;;;4965396;28;38510;-80
2022/12/23 11:03:46;;;;;;;36.38;22.23;;;10.00;99.90;;;;;;4974410;28;37532;-79
2022/12/23 11:06:12;;;;;;;38.08;23.13;;;10.00;99.90;;;;;;4955759;28;39122;-79
2022/12/23 11:08:39;;;;;;;52.60;25.17;;;10.00;99.90;;;;;;4987181;28;38366;-80
2022/12/23 11:11:06;;;;;;;53.17;28.07;;;10.00;99.90;;;;;;4984990;28;38247;-79
2022/12/23 11:13:40;;;;;;;54.57;34.03;;;10.00;99.90;;;;;;4969733;28;39897;-81
2022/12/23 11:16:27;;;;;;;62.83;41.87;;;10.00;99.90;;;;;;4969497;28;38982;-80
2022/12/23 11:18:55;;;;;;;54.03;33.13;;;10.00;99.90;;;;;;4972585;28;38682;-80
2022/12/23 11:21:51;;;;;;;47.77;27.20;;;10.00;99.90;;;;;;4978173;28;36800;-81
2022/12/23 11:24:20;;;;;;;59.70;28.90;;;10.00;99.90;;;;;;4989529;28;38080;-80
2022/12/23 11:27:12;;;;;;;54.67;26.83;;;10.00;99.90;;;;;;4988165;28;39708;-78
2022/12/23 11:29:47;;;;;;;42.53;23.90;;;10.10;99.90;;;;;;4997389;28;48126;-82
2022/12/23 11:32:18;;;;;;;49.30;25.70;;;10.10;99.90;;;;;;4993825;28;40297;-81
2022/12/23 11:34:58;;;;;;;41.60;23.90;;;10.10;99.90;;;;;;4993154;28;37826;-81
2022/12/23 11:37:30;;;;;;;37.23;23.87;;;10.10;99.90;;;;;;4977553;28;40245;-81
2022/12/23 11:39:57;;;;;;;47.15;24.95;;;10.10;99.90;;;;;;4984375;28;38160;-81
2022/12/23 11:42:28;;;;;;;53.83;26.87;;;10.10;99.90;;;;;;5000277;28;37752;-80
2022/12/23 11:44:58;;;;;;;47.03;26.15;;;10.00;99.90;;;;;;4974911;28;36519;-81
2022/12/23 11:47:39;;;;;;;47.23;26.47;;;10.00;99.90;;;;;;4985898;28;37620;-80
2022/12/23 11:50:24;;;;;;;60.70;27.33;;;10.10;99.90;;;;;;4983869;28;38836;-80
2022/12/23 11:52:53;;;;;;;43.60;25.00;;;10.10;99.90;;;;;;4987776;28;37215;-80
2022/12/23 11:55:28;;;;;;;44.80;26.00;;;10.10;99.90;;;;;;4997599;28;37071;-81
2022/12/23 11:57:56;;;;;;;39.83;24.07;;;10.10;99.90;;;;;;4999852;28;39293;-81
2022/12/23 12:00:48;;;;;;;47.77;25.07;;;10.00;99.90;;;;;;4977613;28;38597;-82
2022/12/23 12:06:05;;;;;;;62.30;27.97;;;10.00;99.90;;;;;;5295210;23;20238;-79
2022/12/23 12:08:41;;;;;;;43.40;24.50;;;10.10;99.90;;;;;;4989791;28;38889;-80
2022/12/23 12:11:23;;;;;;;40.60;24.17;;;10.00;99.90;;;;;;4977831;28;40893;-81
2022/12/23 12:14:06;;;;;;;42.47;23.48;;;10.00;99.90;;;;;;4987911;28;37580;-80
2022/12/23 12:16:45;;;;;;;41.97;23.25;;;10.00;99.90;;;;;;4987974;28;47474;-79
2022/12/23 12:19:24;;;;;;;51.80;25.50;;;10.00;99.90;;;;;;5001327;28;38263;-79
2022/12/23 12:21:55;;;;;;;37.23;21.27;;;10.10;99.90;;;;;;5002157;28;40506;-79
2022/12/23 12:24:42;;;;;;;38.60;23.27;;;10.10;99.90;;;;;;4990794;28;37360;-80
2022/12/23 12:27:10;;;;;;;49.87;26.07;;;10.10;99.90;;;;;;4994296;28;37295;-79
2022/12/23 12:29:52;;;;;;;43.50;23.13;;;10.10;99.90;;;;;;4983346;28;37759;-80
2022/12/23 12:32:32;;;;;;;37.87;23.70;;;10.10;99.90;;;;;;4998936;28;20043;-79
2022/12/23 12:35:03;;;;;;;46.03;23.90;;;10.10;99.90;;;;;;4986044;28;36896;-81
2022/12/23 12:37:43;;;;;;;40.30;24.08;;;10.10;99.90;;;;;;5007856;28;49033;-80
2022/12/23 12:40:34;;;;;;;48.90;25.80;;;10.00;99.90;;;;;;5003427;28;39220;-80
2022/12/23 12:43:16;;;;;;;43.90;24.47;;;10.10;99.90;;;;;;5000471;28;38734;-81
2022/12/23 12:46:01;;;;;;;36.57;22.90;;;10.00;99.90;;;;;;4998929;28;49098;-81
2022/12/23 12:48:53;;;;;;;52.00;25.50;;;10.00;99.90;;;;;;4982326;28;37190;-80
2022/12/23 12:51:50;;;;;;;47.00;25.63;;;10.10;99.90;;;;;;5006676;28;40256;-80
2022/12/23 12:54:22;;;;;;;37.30;22.90;;;10.10;99.90;;;;;;4979581;28;38267;-81
2022/12/23 12:56:56;;;;;;;37.15;22.60;;;10.20;99.90;;;;;;4985957;28;38585;-80
2022/12/23 12:59:26;;;;;;;34.87;22.60;;;10.30;99.90;;;;;;4991507;28;36835;-80
2022/12/23 13:02:12;;;;;;;33.37;21.47;;;10.30;99.90;;;;;;4992658;28;39928;-80
2022/12/23 13:04:53;;;;;;;34.23;20.20;;;10.40;99.90;;;;;;4974452;28;46178;-80
2022/12/23 13:07:25;;;;;;;34.07;21.60;;;10.50;99.90;;;;;;4976294;28;37990;-80
2022/12/23 13:09:57;;;;;;;36.20;21.65;;;10.50;99.90;;;;;;4970234;28;36333;-80
2022/12/23 13:12:55;;;;;;;33.95;21.35;;;10.50;99.90;;;;;;4992230;28;38826;-80
2022/12/23 13:15:33;;;;;;;25.73;18.00;;;10.60;99.90;;;;;;4996597;28;39343;-79
2022/12/23 13:18:10;;;;;;;30.47;18.60;;;10.70;99.90;;;;;;4988224;28;38320;-79
2022/12/23 13:20:47;;;;;;;35.83;20.10;;;10.70;99.90;;;;;;4988609;28;48821;-80
2022/12/23 13:23:21;;;;;;;28.87;18.60;;;10.70;99.90;;;;;;4987944;28;39008;-79
2022/12/23 13:26:00;;;;;;;28.20;18.67;;;10.60;99.90;;;;;;4969138;28;37763;-80
2022/12/23 13:28:35;;;;;;;28.00;17.93;;;10.60;99.90;;;;;;4987201;28;38125;-79
2022/12/23 13:31:43;;;;;;;28.10;18.90;;;10.50;99.90;;;;;;4972322;28;35927;-79
2022/12/23 13:34:41;;;;;;;32.53;18.87;;;10.40;99.90;;;;;;4970117;28;46782;-81
2022/12/23 13:37:21;;;;;;;29.67;19.03;;;10.50;99.90;;;;;;4893763;28;37350;-80